Time;durP1;ratioP1;P1;durP2;ratioP2;P2;SDS_P1;SDS_P2;PMS_P1;PMS_P2;Temp;Humidity;BMP_temperature;BMP_pressure;BME280_temperature;BME280_humidity;BME280_pressure;Samples;Min_cycle;Max_cycle;Signal;HPM_P1;HPM_P2
2020/12/01 00:01:12;;;;;;;;;;;-0.10;99.90;;;;;;8248950;28;19917;-74
2020/12/01 00:05:14;;;;;;;;;;;0.00;99.90;;;;;;8252084;28;19956;-74
2020/12/01 00:09:15;;;;;;;;;;;0.00;99.90;;;;;;8254865;28;20013;-75
2020/12/01 00:13:15;;;;;;;;;;;0.00;99.90;;;;;;8256094;28;19910;-74
2020/12/01 00:17:16;;;;;;;;;;;0.00;99.90;;;;;;8255258;28;19964;-75
2020/12/01 00:21:17;;;;;;;;;;;0.00;99.90;;;;;;8255742;28;19925;-74
2020/12/01 00:25:18;;;;;;;;;;;0.00;99.90;;;;;;8254652;28;20552;-74
2020/12/01 00:29:18;;;;;;;;;;;0.00;99.90;;;;;;8253786;28;19917;-74
2020/12/01 00:33:18;;;;;;;;;;;-0.10;99.90;;;;;;8255764;28;19921;-74
2020/12/01 00:37:19;;;;;;;;;;;-0.10;99.90;;;;;;8255353;28;19918;-74
2020/12/01 00:41:19;;;;;;;;;;;0.00;99.90;;;;;;8255347;28;19921;-74
2020/12/01 00:45:20;;;;;;;;;;;-0.10;99.90;;;;;;8254169;28;19913;-74
2020/12/01 00:49:20;;;;;;;;;;;-0.20;99.90;;;;;;8254750;28;19924;-74
2020/12/01 00:53:21;;;;;;;;;;;-0.10;99.90;;;;;;8255328;28;19914;-74
2020/12/01 00:57:21;;;;;;;;;;;-0.10;99.90;;;;;;8253615;28;19925;-75
2020/12/01 01:01:24;;;;;;;;;;;-0.10;99.90;;;;;;8253367;28;19952;-74
2020/12/01 01:05:24;;;;;;;;;;;-0.10;99.90;;;;;;8253230;28;19910;-74
2020/12/01 01:09:25;;;;;;;;;;;0.00;99.90;;;;;;8254749;28;20000;-79
2020/12/01 01:13:25;;;;;;;;;;;0.00;99.90;;;;;;8254170;28;20781;-73
2020/12/01 01:17:26;;;;;;;;;;;0.00;99.90;;;;;;8253653;28;20016;-74
2020/12/01 01:21:26;;;;;;;;;;;0.10;99.90;;;;;;8252582;28;19957;-74
2020/12/01 01:25:27;;;;;;;;;;;0.10;99.90;;;;;;8253701;28;19917;-74
2020/12/01 01:29:27;;;;;;;;;;;0.10;99.90;;;;;;8253199;28;19910;-74
2020/12/01 01:33:27;;;;;;;;;;;0.10;99.90;;;;;;8253332;28;20004;-74
2020/12/01 01:37:28;;;;;;;;;;;0.10;99.90;;;;;;8253387;28;19921;-75
2020/12/01 01:41:30;;;;;;;;;;;0.30;99.90;;;;;;8253437;28;19917;-75
2020/12/01 01:45:41;;;;;;;;;;;0.30;99.90;;;;;;8252421;28;19945;-75
2020/12/01 01:49:42;;;;;;;;;;;0.30;99.90;;;;;;8251268;28;20511;-74
2020/12/01 01:53:46;;;;;;;;;;;0.30;99.90;;;;;;8252405;28;19910;-75
2020/12/01 01:57:51;;;;;;;;;;;0.30;99.90;;;;;;8251557;28;19928;-74
2020/12/01 02:01:52;;;;;;;;;;;0.20;99.90;;;;;;8252978;28;19946;-73
2020/12/01 02:05:52;;;;;;;;;;;0.30;99.90;;;;;;8250166;28;19917;-75
2020/12/01 02:09:55;;;;;;;;;;;0.20;99.90;;;;;;8248130;28;20533;-74
2020/12/01 02:13:55;;;;;;;;;;;0.20;99.90;;;;;;8248289;28;19972;-75
2020/12/01 02:17:56;;;;;;;;;;;0.30;99.90;;;;;;8247949;28;19917;-74
2020/12/01 02:21:57;;;;;;;;;;;0.30;99.90;;;;;;8248978;28;19910;-74
2020/12/01 02:26:00;;;;;;;;;;;0.30;99.90;;;;;;8248195;28;20483;-74
2020/12/01 02:30:00;;;;;;;;;;;0.30;99.90;;;;;;8249039;28;20342;-75
2020/12/01 02:34:03;;;;;;;;;;;0.30;99.90;;;;;;8274947;28;19960;-74
2020/12/01 02:38:04;;;;;;;;;;;0.30;99.90;;;;;;8281604;28;19913;-74
2020/12/01 02:42:07;;;;;;;;;;;0.40;99.90;;;;;;8279547;28;19972;-74
2020/12/01 02:46:07;;;;;;;;;;;0.40;99.90;;;;;;8281473;28;19909;-74
2020/12/01 02:50:08;;;;;;;;;;;0.30;99.90;;;;;;8280071;28;19916;-74
2020/12/01 02:54:09;;;;;;;;;;;0.40;99.90;;;;;;8296608;28;20468;-75
2020/12/01 02:58:09;;;;;;;;;;;0.40;99.90;;;;;;8279109;28;19923;-74
2020/12/01 03:02:10;;;;;;;;;;;0.40;99.90;;;;;;8281129;28;19914;-75
2020/12/01 03:06:11;;;;;;;;;;;0.40;99.90;;;;;;8281126;28;19917;-74
2020/12/01 03:10:11;;;;;;;;;;;0.50;99.90;;;;;;8295692;28;19921;-74
2020/12/01 03:14:12;;;;;;;;;;;0.50;99.90;;;;;;8280801;28;19977;-75
2020/12/01 03:18:12;;;;;;;;;;;0.50;99.90;;;;;;8296110;28;20602;-74
2020/12/01 03:22:13;;;;;;;;;;;0.50;99.90;;;;;;8279410;28;20052;-74
2020/12/01 03:26:15;;;;;;;;;;;0.50;99.90;;;;;;8278825;28;20379;-74
2020/12/01 03:30:15;;;;;;;;;;;0.50;99.90;;;;;;8295805;28;19916;-75
2020/12/01 03:34:16;;;;;;;;;;;0.50;99.90;;;;;;8279412;28;19909;-75
2020/12/01 03:38:16;;;;;;;;;;;0.60;99.90;;;;;;8281325;28;19940;-73
2020/12/01 03:42:17;;;;;;;;;;;0.60;99.90;;;;;;8286013;28;19916;-74
2020/12/01 03:46:18;;;;;;;;;;;0.60;99.90;;;;;;8287645;28;20441;-75
2020/12/01 03:50:19;;;;;;;;;;;0.60;99.90;;;;;;8281803;28;20302;-76
2020/12/01 03:54:19;;;;;;;;;;;0.60;99.90;;;;;;8287457;28;19917;-74
2020/12/01 03:58:20;;;;;;;;;;;0.60;99.90;;;;;;8323715;22;20561;-68
2020/12/01 04:02:20;;;;;;;;;;;0.60;99.90;;;;;;8316229;28;20650;-67
2020/12/01 04:06:20;;;;;;;;;;;0.60;99.90;;;;;;8317568;28;19917;-67
2020/12/01 04:10:22;;;;;;;;;;;0.60;99.90;;;;;;8316034;28;19971;-67
2020/12/01 04:14:22;;;;;;;;;;;0.70;99.90;;;;;;8317418;28;19909;-68
2020/12/01 04:18:23;;;;;;;;;;;0.70;99.90;;;;;;8317076;28;20535;-67
2020/12/01 04:22:24;;;;;;;;;;;0.80;99.90;;;;;;8316693;28;19974;-67
2020/12/01 04:26:24;;;;;;;;;;;0.90;99.90;;;;;;8316742;28;20466;-68
2020/12/01 04:30:25;;;;;;;;;;;1.00;99.90;;;;;;8314843;28;19961;-68
2020/12/01 04:34:25;;;;;;;;;;;1.00;99.90;;;;;;8311426;28;19925;-67
2020/12/01 04:38:26;;;;;;;;;;;1.00;99.90;;;;;;8313996;28;20183;-68
2020/12/01 04:42:28;;;;;;;;;;;1.00;99.90;;;;;;8312070;28;19929;-69
2020/12/01 04:46:31;;;;;;;;;;;1.00;99.90;;;;;;8306020;28;20012;-68
2020/12/01 04:50:34;;;;;;;;;;;0.90;99.90;;;;;;8312906;28;20493;-68
2020/12/01 04:54:53;;;;;;;;;;;1.00;99.90;;;;;;8312473;28;19913;-68
2020/12/01 04:59:12;;;;;;;;;;;1.00;99.90;;;;;;8296242;28;20043;-69
2020/12/01 05:03:16;;;;;;;;;;;1.10;99.90;;;;;;8311125;28;19967;-68
2020/12/01 05:07:32;;;;;;;;;;;1.10;99.90;;;;;;8310596;28;20550;-67
2020/12/01 05:11:43;;;;;;;;;;;1.10;99.90;;;;;;8303375;28;19909;-69
2020/12/01 05:15:45;;;;;;;;;;;1.10;99.90;;;;;;8296737;28;19920;-67
2020/12/01 05:19:47;;;;;;;;;;;1.20;99.90;;;;;;8314702;28;19913;-69
2020/12/01 05:23:48;;;;;;;;;;;1.10;99.90;;;;;;8314918;28;19970;-69
2020/12/01 05:27:49;;;;;;;;;;;1.20;99.90;;;;;;8312811;28;19975;-69
2020/12/01 05:31:49;;;;;;;;;;;1.10;99.90;;;;;;8306662;28;19991;-67
2020/12/01 05:35:57;;;;;;;;;;;1.20;99.90;;;;;;8311425;28;19913;-67
2020/12/01 05:40:03;;;;;;;;;;;1.10;99.90;;;;;;8311772;28;19987;-71
2020/12/01 05:44:14;;;;;;;;;;;1.10;99.90;;;;;;8313667;28;19913;-72
2020/12/01 05:48:23;;;;;;;;;;;1.20;99.90;;;;;;8311015;28;19935;-68
2020/12/01 05:52:46;;;;;;;;;;;1.20;99.90;;;;;;8280356;28;19910;-67
2020/12/01 05:56:53;;;;;;;;;;;1.10;99.90;;;;;;8309514;28;19913;-68
2020/12/01 06:00:58;;;;;;;;;;;1.20;99.90;;;;;;8309898;28;19918;-69
2020/12/01 06:04:59;;;;;;;;;;;1.20;99.90;;;;;;8312161;28;19913;-69
2020/12/01 06:09:09;;;;;;;;;;;1.20;99.90;;;;;;8312483;28;20286;-68
2020/12/01 06:13:09;;;;;;;;;;;1.20;99.90;;;;;;8313534;28;19913;-69
2020/12/01 06:17:13;;;;;;;;;;;1.20;99.90;;;;;;8313513;28;19920;-69
2020/12/01 06:21:14;;;;;;;;;;;1.20;99.90;;;;;;8312135;28;20279;-69
2020/12/01 06:25:27;;;;;;;;;;;1.20;99.90;;;;;;8313490;28;20008;-68
2020/12/01 06:29:27;;;;;;;;;;;1.20;99.90;;;;;;8313064;28;19920;-69
2020/12/01 06:33:46;;;;;;;;;;;1.30;99.90;;;;;;8312880;28;20144;-68
2020/12/01 06:38:05;;;;;;;;;;;1.40;99.90;;;;;;8312589;28;19917;-69
2020/12/01 06:42:20;;;;;;;;;;;1.30;99.90;;;;;;8312620;28;19952;-69
2020/12/01 06:46:39;;;;;;;;;;;1.30;99.90;;;;;;8312661;28;19909;-69
2020/12/01 06:50:42;;;;;;;;;;;1.50;99.90;;;;;;8312517;28;19917;-69
2020/12/01 06:54:50;;;;;;;;;;;1.40;99.90;;;;;;8312674;28;19916;-69
2020/12/01 06:58:50;;;;;;;;;;;1.50;99.90;;;;;;8310696;28;19924;-71
2020/12/01 07:02:51;;;;;;;;;;;1.50;99.90;;;;;;8312218;28;19910;-71
2020/12/01 07:06:56;;;;;;;;;;;1.50;99.90;;;;;;8310846;28;19909;-70
2020/12/01 07:11:05;;;;;;;;;;;1.60;99.90;;;;;;8310970;28;19909;-70
2020/12/01 07:15:07;;;;;;;;;;;1.50;99.90;;;;;;8311833;28;20169;-69
2020/12/01 07:19:19;;;;;;;;;;;1.50;99.90;;;;;;8311874;28;19913;-69
2020/12/01 07:23:46;;;;;;;;;;;1.50;99.90;;;;;;8310761;28;20056;-70
2020/12/01 07:27:58;;;;;;;;;;;1.60;99.90;;;;;;8312410;28;20013;-69
2020/12/01 07:32:04;;;;;;;;;;;1.70;99.90;;;;;;8311764;28;19915;-70
2020/12/01 07:36:34;;;;;;;;;;;1.60;99.90;;;;;;8311749;28;19909;-69
2020/12/01 07:40:48;;;;;;;;;;;1.60;99.90;;;;;;8300614;28;19939;-70
2020/12/01 07:44:49;;;;;;;;;;;1.70;99.90;;;;;;8311598;28;20114;-70
2020/12/01 07:49:02;;;;;;;;;;;1.70;99.90;;;;;;8311285;28;20505;-69
2020/12/01 07:53:10;;;;;;;;;;;1.70;99.90;;;;;;8311322;28;19909;-71
2020/12/01 07:57:18;;;;;;;;;;;1.80;99.90;;;;;;8311289;28;19917;-71
2020/12/01 08:01:18;;;;;;;;;;;1.90;99.90;;;;;;8311029;28;19909;-71
2020/12/01 08:05:22;;;;;;;;;;;1.90;99.90;;;;;;8309359;28;19913;-71
2020/12/01 08:09:24;;;;;;;;;;;1.90;99.90;;;;;;8310654;28;20153;-71
2020/12/01 08:13:25;;;;;;;;;;;1.90;99.90;;;;;;8311093;28;20012;-71
2020/12/01 08:17:27;;;;;;;;;;;2.00;99.90;;;;;;8309845;28;19913;-70
2020/12/01 08:21:35;;;;;;;;;;;2.20;99.90;;;;;;8311448;28;20276;-69
2020/12/01 08:25:36;;;;;;;;;;;2.10;99.90;;;;;;8313488;28;19923;-69
2020/12/01 08:29:38;;;;;;;;;;;2.20;99.90;;;;;;8317410;28;20268;-71
2020/12/01 08:34:01;;;;;;;;;;;2.20;99.90;;;;;;8317035;28;19945;-69
2020/12/01 08:38:05;;;;;;;;;;;2.30;99.90;;;;;;8315687;28;19967;-71
2020/12/01 08:42:14;;;;;;;;;;;2.40;99.90;;;;;;8317061;28;19919;-71
2020/12/01 08:46:19;;;;;;;;;;;2.30;99.90;;;;;;8316767;28;19909;-69
2020/12/01 08:50:22;;;;;;;;;;;2.30;99.90;;;;;;8314868;28;19917;-71
2020/12/01 08:54:24;;;;;;;;;;;2.30;99.90;;;;;;8316288;28;19913;-71
2020/12/01 08:58:27;;;;;;;;;;;2.40;99.90;;;;;;8316356;28;19918;-71
2020/12/01 09:02:36;;;;;;;;;;;2.60;99.90;;;;;;8315781;28;19909;-71
2020/12/01 09:06:36;;;;;;;;;;;2.60;99.90;;;;;;8316377;28;20534;-70
2020/12/01 09:10:37;;;;;;;;;;;2.60;99.90;;;;;;8314734;28;19909;-71
2020/12/01 09:23:06;;;;;;;;;;;2.60;99.90;;;;;;8316202;28;20390;-72
2020/12/01 09:27:13;;;;;;;;;;;2.70;99.90;;;;;;8315109;28;19931;-73
2020/12/01 09:31:14;;;;;;;;;;;2.50;99.90;;;;;;8313910;28;20429;-72
2020/12/01 09:35:14;;;;;;;;;;;2.60;99.90;;;;;;8315121;28;19909;-72
2020/12/01 09:39:15;;;;;;;;;;;2.70;99.90;;;;;;8313536;28;19913;-73
2020/12/01 09:48:05;;;;;;;;;;;2.90;99.90;;;;;;8314957;28;20369;-72
2020/12/01 09:51:55;;;;;;;;;;;2.90;99.90;;;;;;8308284;28;19983;-73
2020/12/01 09:56:25;;;;;;;;;;;2.90;99.90;;;;;;8314662;28;19909;-71
2020/12/01 10:04:59;;;;;;;;;;;3.40;99.90;;;;;;8314675;28;19910;-74
2020/12/01 10:09:08;;;;;;;;;;;3.40;99.90;;;;;;8313695;28;19917;-75
2020/12/01 10:13:34;;;;;;;;;;;3.60;99.90;;;;;;8314045;28;20395;-74
2020/12/01 10:17:49;;;;;;;;;;;3.80;99.90;;;;;;8312484;28;20221;-74
2020/12/01 10:22:58;;;;;;;;;;;3.50;99.90;;;;;;8312234;28;19913;-74
2020/12/01 10:26:55;;;;;;;;;;;3.60;99.90;;;;;;8313096;28;19998;-74
2020/12/01 10:35:19;;;;;;;;;;;3.40;99.90;;;;;;8313569;28;19953;-74
2020/12/01 10:39:20;;;;;;;;;;;3.30;99.90;;;;;;8312818;28;20428;-75
2020/12/01 10:43:21;;;;;;;;;;;3.00;99.90;;;;;;8311833;28;19994;-74
2020/12/01 10:47:22;;;;;;;;;;;3.00;99.90;;;;;;8312447;28;20092;-75
2020/12/01 10:51:22;;;;;;;;;;;2.90;99.90;;;;;;8312488;28;19909;-73
2020/12/01 10:55:27;;;;;;;;;;;2.80;99.90;;;;;;8312908;28;19915;-74
2020/12/01 10:59:27;;;;;;;;;;;3.00;99.90;;;;;;8312547;28;19917;-74
2020/12/01 11:03:28;;;;;;;;;;;2.90;99.90;;;;;;8312408;28;19909;-74
2020/12/01 11:07:28;;;;;;;;;;;3.00;99.90;;;;;;8312522;28;20177;-75
2020/12/01 11:11:29;;;;;;;;;;;3.20;99.90;;;;;;8312133;28;19959;-73
2020/12/01 11:15:29;;;;;;;;;;;3.30;99.90;;;;;;8312560;28;19913;-73
2020/12/01 11:19:30;;;;;;;;;;;3.50;99.90;;;;;;8310469;28;20116;-73
2020/12/01 11:23:30;;;;;;;;;;;3.60;99.90;;;;;;8310700;28;19913;-73
2020/12/01 11:27:31;;;;;;;;;;;3.80;99.90;;;;;;8312155;28;19951;-75
2020/12/01 11:31:32;;;;;;;;;;;3.80;99.90;;;;;;8311735;28;19974;-75
2020/12/01 11:35:33;;;;;;;;;;;3.80;99.90;;;;;;8310153;28;19947;-74
2020/12/01 11:39:33;;;;;;;;;;;3.70;99.90;;;;;;8311199;28;20389;-74
2020/12/01 11:43:33;;;;;;;;;;;3.50;99.90;;;;;;8311362;28;20282;-73
2020/12/01 11:47:34;;;;;;;;;;;3.50;99.90;;;;;;8311215;28;19916;-74
2020/12/01 11:51:35;;;;;;;;;;;3.40;99.90;;;;;;8309445;28;19909;-72
2020/12/01 11:55:36;;;;;;;;;;;3.60;99.90;;;;;;8311213;28;20580;-73
2020/12/01 11:59:36;;;;;;;;;;;3.90;99.90;;;;;;8310421;28;19928;-72
2020/12/01 12:03:36;;;;;;;;;;;3.70;99.90;;;;;;8318050;28;20249;-72
2020/12/01 12:07:37;;;;;;;;;;;3.70;99.90;;;;;;8317983;28;19932;-71
2020/12/01 12:11:37;;;;;;;;;;;3.70;99.90;;;;;;8317495;28;19909;-72
2020/12/01 12:15:38;;;;;;;;;;;3.70;99.90;;;;;;8317436;28;19916;-73
2020/12/01 12:19:38;;;;;;;;;;;3.70;99.90;;;;;;8316937;28;19913;-73
2020/12/01 12:23:39;;;;;;;;;;;3.90;99.90;;;;;;8317338;28;19917;-71
2020/12/01 12:27:39;;;;;;;;;;;3.90;99.90;;;;;;8316702;28;19920;-72
2020/12/01 12:31:40;;;;;;;;;;;3.70;99.90;;;;;;8316769;28;20030;-71
2020/12/01 12:35:40;;;;;;;;;;;3.90;99.90;;;;;;8315349;28;20043;-72
2020/12/01 12:39:41;;;;;;;;;;;4.10;99.90;;;;;;8316198;28;19913;-72
2020/12/01 12:43:41;;;;;;;;;;;4.40;99.90;;;;;;8315026;28;20378;-71
2020/12/01 12:47:41;;;;;;;;;;;4.40;99.90;;;;;;8316408;28;19909;-73
2020/12/01 12:51:42;;;;;;;;;;;4.30;99.90;;;;;;8315739;28;19909;-72
2020/12/01 12:55:42;;;;;;;;;;;4.50;99.90;;;;;;8316087;28;20067;-72
2020/12/01 12:59:43;;;;;;;;;;;4.60;99.90;;;;;;8316123;28;20270;-72
2020/12/01 13:03:43;;;;;;;;;;;4.80;99.90;;;;;;8316025;28;20360;-72
2020/12/01 13:07:44;;;;;;;;;;;4.80;99.90;;;;;;8315790;28;20370;-72
2020/12/01 13:11:44;;;;;;;;;;;4.70;99.90;;;;;;8313628;28;20008;-72
2020/12/01 13:15:45;;;;;;;;;;;4.60;99.90;;;;;;8316167;28;19963;-72
2020/12/01 13:19:45;;;;;;;;;;;4.40;99.90;;;;;;8314251;28;19913;-72
2020/12/01 13:23:46;;;;;;;;;;;4.40;99.90;;;;;;8315633;28;19909;-72
2020/12/01 13:27:46;;;;;;;;;;;4.40;99.90;;;;;;8315149;28;19909;-72
2020/12/01 13:31:47;;;;;;;;;;;4.50;99.90;;;;;;8315026;28;19920;-71
2020/12/01 13:35:48;;;;;;;;;;;4.40;99.90;;;;;;8314055;28;19967;-72
2020/12/01 13:39:49;;;;;;;;;;;4.50;99.90;;;;;;8315289;28;19917;-71
2020/12/01 13:43:49;;;;;;;;;;;4.90;99.90;;;;;;8314915;28;19913;-71
2020/12/01 13:47:50;;;;;;;;;;;5.60;99.90;;;;;;8315543;28;19936;-71
2020/12/01 13:51:50;;;;;;;;;;;5.90;99.90;;;;;;8314450;28;19983;-71
2020/12/01 13:55:51;;;;;;;;;;;5.80;99.90;;;;;;8314775;28;19913;-71
2020/12/01 13:59:51;;;;;;;;;;;5.50;99.90;;;;;;8313963;28;19928;-70
2020/12/01 14:03:51;;;;;;;;;;;5.40;99.90;;;;;;8312688;28;19916;-70
2020/12/01 14:07:52;;;;;;;;;;;4.90;99.90;;;;;;8312762;28;19916;-70
2020/12/01 14:11:54;;;;;;;;;;;4.60;99.90;;;;;;8312802;28;20289;-70
2020/12/01 14:15:54;;;;;;;;;;;4.40;99.90;;;;;;8312583;28;20083;-70
2020/12/01 14:19:55;;;;;;;;;;;4.00;99.90;;;;;;8311140;28;19951;-70
2020/12/01 14:23:55;;;;;;;;;;;3.60;99.90;;;;;;8306792;28;19943;-71
2020/12/01 14:27:56;;;;;;;;;;;3.50;99.90;;;;;;8307867;28;20306;-74
2020/12/01 14:31:56;;;;;;;;;;;3.50;99.90;;;;;;8300188;28;19913;-74
2020/12/01 14:35:57;;;;;;;;;;;3.20;99.90;;;;;;8306017;28;20382;-73
2020/12/01 14:39:57;;;;;;;;;;;3.00;99.90;;;;;;8306345;28;20162;-74
2020/12/01 14:43:58;;;;;;;;;;;2.80;99.90;;;;;;8307232;28;19913;-74
2020/12/01 14:48:13;;;;;;;;;;;2.60;99.90;;;;;;8310624;28;19913;-77
2020/12/01 14:52:24;;;;;;;;;;;2.70;99.90;;;;;;8306388;28;19936;-72
2020/12/01 14:56:37;;;;;;;;;;;2.70;99.90;;;;;;8312268;28;19909;-73
2020/12/01 15:00:51;;;;;;;;;;;2.80;99.90;;;;;;8310416;28;19917;-73
2020/12/01 15:05:10;;;;;;;;;;;2.60;99.90;;;;;;8311208;28;19952;-73
2020/12/01 15:09:14;;;;;;;;;;;2.60;99.90;;;;;;8303657;28;20294;-73
2020/12/01 15:13:14;;;;;;;;;;;2.50;99.90;;;;;;8297853;28;19992;-73
2020/12/01 15:17:18;;;;;;;;;;;2.40;99.90;;;;;;8304820;28;19940;-74
2020/12/01 15:21:20;;;;;;;;;;;2.50;99.90;;;;;;8311642;28;20008;-75
2020/12/01 15:25:23;;;;;;;;;;;2.40;99.90;;;;;;8310082;28;19940;-72
2020/12/01 15:29:23;;;;;;;;;;;2.30;99.90;;;;;;8301711;28;19932;-74
2020/12/01 15:33:26;;;;;;;;;;;2.40;99.90;;;;;;8299257;28;19913;-76
2020/12/01 15:37:27;;;;;;;;;;;2.40;99.90;;;;;;8304215;28;20402;-72
2020/12/01 15:41:28;;;;;;;;;;;2.30;99.90;;;;;;8304271;28;20119;-74
2020/12/01 15:45:28;;;;;;;;;;;2.20;99.90;;;;;;8300698;28;20007;-76
2020/12/01 15:49:29;;;;;;;;;;;2.40;99.90;;;;;;8310084;28;20612;-73
2020/12/01 15:53:39;;;;;;;;;;;2.60;99.90;;;;;;8316178;28;19928;-73
2020/12/01 15:57:55;;;;;;;;;;;2.60;99.90;;;;;;8311628;28;20150;-68
2020/12/01 16:02:14;;;;;;;;;;;2.50;99.90;;;;;;8313728;28;19913;-71
2020/12/01 16:06:24;;;;;;;;;;;2.70;99.90;;;;;;8300870;28;19917;-69
2020/12/01 16:10:24;;;;;;;;;;;2.70;99.90;;;;;;8310220;28;19914;-68
2020/12/01 16:14:44;;;;;;;;;;;2.70;99.90;;;;;;8316871;28;20200;-68
2020/12/01 16:18:45;;;;;;;;;;;2.70;99.90;;;;;;8313487;28;19921;-68
2020/12/01 16:22:45;;;;;;;;;;;2.40;99.90;;;;;;8316603;28;19913;-69
2020/12/01 16:26:48;;;;;;;;;;;2.90;99.90;;;;;;8311054;28;20402;-70
2020/12/01 16:30:49;;;;;;;;;;;4.20;99.90;;;;;;8310171;28;19914;-68
2020/12/01 16:34:50;;;;;;;;;;;4.80;99.90;;;;;;8313495;28;20015;-66
2020/12/01 16:39:06;;;;;;;;;;;4.70;99.90;;;;;;8316317;28;19924;-67
2020/12/01 16:43:07;;;;;;;;;;;5.20;99.90;;;;;;8315595;28;19982;-67
2020/12/01 16:47:15;;;;;;;;;;;5.40;99.90;;;;;;8308967;28;19979;-69
2020/12/01 16:51:34;;;;;;;;;;;5.40;99.90;;;;;;8311530;28;19936;-66
2020/12/01 16:55:44;;;;;;;;;;;5.80;99.90;;;;;;8310750;28;19913;-68
2020/12/01 16:59:45;;;;;;;;;;;5.80;99.90;;;;;;8311064;28;20374;-68
2020/12/01 17:04:04;;;;;;;;;;;6.30;99.90;;;;;;8315682;28;19983;-68
2020/12/01 17:08:05;;;;;;;;;;;6.00;99.90;;;;;;8315522;28;20240;-68
2020/12/01 17:12:08;;;;;;;;;;;6.60;99.90;;;;;;8314977;28;19913;-68
2020/12/01 17:16:09;;;;;;;;;;;6.40;99.90;;;;;;8315847;28;20325;-68
2020/12/01 17:20:09;;;;;;;;;;;5.70;99.90;;;;;;8314362;28;20115;-68
2020/12/01 17:24:15;;;;;;;;;;;5.00;99.90;;;;;;8311808;28;19940;-68
2020/12/01 17:28:15;;;;;;;;;;;5.20;99.90;;;;;;8306145;28;20062;-69
2020/12/01 17:32:20;;;;;;;;;;;4.60;99.90;;;;;;8307715;28;20039;-68
2020/12/01 17:36:24;;;;;;;;;;;3.80;99.90;;;;;;8307435;28;19921;-68
2020/12/01 17:40:38;;;;;;;;;;;3.40;99.90;;;;;;8282725;28;19921;-68
2020/12/01 17:44:39;;;;;;;;;;;3.10;99.90;;;;;;8294827;28;19917;-68
2020/12/01 17:48:45;;;;;;;;;;;3.00;99.90;;;;;;8300614;28;19928;-68
2020/12/01 17:52:49;;;;;;;;;;;2.80;99.90;;;;;;8293403;28;19947;-68
2020/12/01 17:56:51;;;;;;;;;;;2.70;99.90;;;;;;8315779;28;19921;-68
2020/12/01 18:00:52;;;;;;;;;;;2.50;99.90;;;;;;8310105;28;20106;-68
2020/12/01 18:04:52;;;;;;;;;;;2.50;99.90;;;;;;8291122;28;20276;-68
2020/12/01 18:08:57;;;;;;;;;;;2.30;99.90;;;;;;8279574;28;20357;-69
2020/12/01 18:13:04;;;;;;;;;;;2.30;99.90;;;;;;8276628;28;20418;-68
2020/12/01 18:17:16;;;;;;;;;;;2.30;99.90;;;;;;8276923;28;20010;-68
2020/12/01 18:21:17;;;;;;;;;;;2.40;99.90;;;;;;8279321;28;19918;-68
2020/12/01 18:25:40;;;;;;;;;;;2.40;99.90;;;;;;8283286;28;19944;-68
2020/12/01 18:29:53;;;;;;;;;;;2.20;99.90;;;;;;8294095;28;19909;-68
2020/12/01 18:34:12;;;;;;;;;;;2.30;99.90;;;;;;8303241;28;20606;-69
2020/12/01 18:38:33;;;;;;;;;;;2.50;99.90;;;;;;8276469;28;20341;-68
2020/12/01 18:42:39;;;;;;;;;;;2.60;99.90;;;;;;8278238;28;20111;-68
2020/12/01 18:46:40;;;;;;;;;;;2.30;99.90;;;;;;8275971;28;19928;-69
2020/12/01 18:50:41;;;;;;;;;;;2.30;99.90;;;;;;8275787;28;20390;-68
2020/12/01 18:54:41;;;;;;;;;;;2.40;99.90;;;;;;8292279;28;20248;-68
2020/12/01 18:58:42;;;;;;;;;;;2.60;99.90;;;;;;8303409;28;19917;-69
2020/12/01 19:02:42;;;;;;;;;;;2.60;99.90;;;;;;8308291;28;19970;-68
2020/12/01 19:06:43;;;;;;;;;;;2.30;99.90;;;;;;8302217;28;19920;-68
2020/12/01 19:10:43;;;;;;;;;;;2.10;99.90;;;;;;8302902;28;19914;-68
2020/12/01 19:14:44;;;;;;;;;;;1.80;99.90;;;;;;8293798;28;19917;-68
2020/12/01 19:21:29;;;;;;;;;;;2.00;99.90;;;;;;8376510;27;20007;-67
2020/12/01 19:25:30;;;;;;;;;;;2.00;99.90;;;;;;8294753;28;20298;-68
2020/12/01 19:29:31;;;;;;;;;;;2.00;99.90;;;;;;8310576;28;19918;-68
2020/12/01 19:33:31;;;;;;;;;;;2.10;99.90;;;;;;8297132;28;19975;-67
2020/12/01 19:37:32;;;;;;;;;;;2.00;99.90;;;;;;8299097;28;19917;-67
2020/12/01 19:41:33;;;;;;;;;;;2.20;99.90;;;;;;8302984;28;19920;-68
2020/12/01 19:45:34;;;;;;;;;;;2.10;99.90;;;;;;8307347;28;19960;-68
2020/12/01 19:49:35;;;;;;;;;;;2.00;99.90;;;;;;8335321;28;20353;-68
2020/12/01 19:53:36;;;;;;;;;;;1.90;99.90;;;;;;8351964;28;19917;-68
2020/12/01 19:57:36;;;;;;;;;;;1.90;99.90;;;;;;8333803;28;20450;-68
2020/12/01 20:01:37;;;;;;;;;;;2.00;99.90;;;;;;8336308;28;19921;-68
2020/12/01 20:05:37;;;;;;;;;;;1.90;99.90;;;;;;8335241;28;19924;-67
2020/12/01 20:09:38;;;;;;;;;;;1.90;99.90;;;;;;8332943;28;20590;-68
2020/12/01 20:13:39;;;;;;;;;;;1.90;99.90;;;;;;8322646;28;20022;-67
2020/12/01 20:17:40;;;;;;;;;;;1.90;99.90;;;;;;8333358;28;20477;-68
2020/12/01 20:21:41;;;;;;;;;;;1.90;99.90;;;;;;8337330;28;19917;-67
2020/12/01 20:25:41;;;;;;;;;;;1.90;99.90;;;;;;8335892;28;19917;-67
2020/12/01 20:29:42;;;;;;;;;;;2.20;99.90;;;;;;8325181;28;19917;-67
2020/12/01 20:33:43;;;;;;;;;;;2.10;99.90;;;;;;8309034;28;19917;-67
2020/12/01 20:38:09;;;;;;;;;;;2.00;99.90;;;;;;8311762;28;19917;-67
2020/12/01 20:42:10;;;;;;;;;;;1.90;99.90;;;;;;8299436;28;19921;-69
2020/12/01 20:46:10;;;;;;;;;;;1.90;99.90;;;;;;8306054;28;20294;-69
2020/12/01 20:50:11;;;;;;;;;;;1.90;99.90;;;;;;8297823;28;19960;-69
2020/12/01 20:54:11;;;;;;;;;;;2.00;99.90;;;;;;8309779;28;19998;-69
2020/12/01 20:58:12;;;;;;;;;;;2.00;99.90;;;;;;8323666;28;19928;-69
2020/12/01 21:02:12;;;;;;;;;;;2.10;99.90;;;;;;8311687;28;19921;-70
2020/12/01 21:06:13;;;;;;;;;;;2.20;99.90;;;;;;8312968;28;19915;-69
2020/12/01 21:10:15;;;;;;;;;;;2.30;99.90;;;;;;8309993;28;20474;-69
2020/12/01 21:14:18;;;;;;;;;;;2.30;99.90;;;;;;8322258;28;19921;-70
2020/12/01 21:18:20;;;;;;;;;;;2.30;99.90;;;;;;8311713;28;19972;-69
2020/12/01 21:22:27;;;;;;;;;;;2.20;99.90;;;;;;8302352;28;20561;-69
2020/12/01 21:26:35;;;;;;;;;;;2.20;99.90;;;;;;8309994;28;19987;-69
2020/12/01 21:30:39;;;;;;;;;;;2.30;99.90;;;;;;8297348;28;20524;-69
2020/12/01 21:34:44;;;;;;;;;;;2.40;99.90;;;;;;8303049;28;19921;-69
2020/12/01 21:38:46;;;;;;;;;;;2.40;99.90;;;;;;8311279;28;19913;-69
2020/12/01 21:42:57;;;;;;;;;;;2.30;99.90;;;;;;8314827;28;19909;-69
2020/12/01 21:46:58;;;;;;;;;;;2.20;99.90;;;;;;8316055;28;19913;-70
2020/12/01 21:51:01;;;;;;;;;;;2.20;99.90;;;;;;8316095;28;19909;-69
2020/12/01 21:55:11;;;;;;;;;;;2.30;99.90;;;;;;8316028;28;19968;-70
2020/12/01 21:59:30;;;;;;;;;;;2.30;99.90;;;;;;8314876;28;19924;-67
2020/12/01 22:03:37;;;;;;;;;;;2.10;99.90;;;;;;8330536;28;19917;-67
2020/12/01 22:07:56;;;;;;;;;;;2.10;99.90;;;;;;8314545;28;20489;-67
2020/12/01 22:12:03;;;;;;;;;;;2.10;99.90;;;;;;8314225;28;19951;-67
2020/12/01 22:16:04;;;;;;;;;;;2.00;99.90;;;;;;8312887;28;19992;-68
2020/12/01 22:20:04;;;;;;;;;;;1.80;99.90;;;;;;8313876;28;19975;-67
2020/12/01 22:24:10;;;;;;;;;;;1.80;99.90;;;;;;8313961;28;19913;-67
2020/12/01 22:28:26;;;;;;;;;;;1.80;99.90;;;;;;8314246;28;19909;-67
2020/12/01 22:32:34;;;;;;;;;;;1.70;99.90;;;;;;8313396;28;20411;-67
2020/12/01 22:36:35;;;;;;;;;;;1.80;99.90;;;;;;8313506;28;19909;-67
2020/12/01 22:40:37;;;;;;;;;;;1.80;99.90;;;;;;8313218;28;20046;-67
2020/12/01 22:44:43;;;;;;;;;;;1.80;99.90;;;;;;8311549;28;19924;-67
2020/12/01 22:49:08;;;;;;;;;;;1.90;99.90;;;;;;8313073;28;19913;-67
2020/12/01 22:53:09;;;;;;;;;;;1.80;99.90;;;;;;8312832;28;19909;-67
2020/12/01 22:57:28;;;;;;;;;;;1.90;99.90;;;;;;8313143;28;19913;-67
2020/12/01 23:01:28;;;;;;;;;;;1.80;99.90;;;;;;8312677;28;19924;-67
2020/12/01 23:05:29;;;;;;;;;;;1.90;99.90;;;;;;8312916;28;20570;-68
2020/12/01 23:09:39;;;;;;;;;;;2.00;99.90;;;;;;8312998;28;19916;-67
2020/12/01 23:13:42;;;;;;;;;;;1.80;99.90;;;;;;8312710;28;19916;-68
2020/12/01 23:17:43;;;;;;;;;;;2.00;99.90;;;;;;8312469;28;19913;-67
2020/12/01 23:21:46;;;;;;;;;;;2.20;99.90;;;;;;8312700;28;19982;-67
2020/12/01 23:25:46;;;;;;;;;;;2.00;99.90;;;;;;8312530;28;19910;-67
2020/12/01 23:29:49;;;;;;;;;;;1.90;99.90;;;;;;8312309;28;20306;-67
2020/12/01 23:33:50;;;;;;;;;;;1.90;99.90;;;;;;8312134;28;20013;-67
2020/12/01 23:37:52;;;;;;;;;;;1.90;99.90;;;;;;8312214;28;19913;-67
2020/12/01 23:41:55;;;;;;;;;;;1.90;99.90;;;;;;8311956;28;19916;-68
2020/12/01 23:45:55;;;;;;;;;;;1.90;99.90;;;;;;8310802;28;19963;-68
2020/12/01 23:50:02;;;;;;;;;;;1.80;99.90;;;;;;8311798;28;20044;-68
2020/12/01 23:54:03;;;;;;;;;;;1.90;99.90;;;;;;8312369;28;20575;-67
2020/12/01 23:58:04;;;;;;;;;;;2.00;99.90;;;;;;8327118;28;19913;-67
